Time;durP1;ratioP1;P1;durP2;ratioP2;P2;SDS_P1;SDS_P2;PMS_P1;PMS_P2;Temp;Humidity;BMP_temperature;BMP_pressure;BME280_temperature;BME280_humidity;BME280_pressure;Samples;Min_cycle;Max_cycle;Signal;HPM_P1;HPM_P2
2022/03/28 00:01:15;;;;;;;6.15;3.67;;;18.70;67.70;;;;;;7899958;28;20548;-53
2022/03/28 00:05:01;;;;;;;4.68;3.08;;;18.70;67.70;;;;;;7899574;28;20297;-56
2022/03/28 00:08:46;;;;;;;6.00;3.47;;;18.70;67.70;;;;;;7899767;28;20196;-50
2022/03/28 00:12:33;;;;;;;5.13;3.38;;;18.60;67.60;;;;;;7899776;28;20264;-51
2022/03/28 00:16:18;;;;;;;5.03;3.42;;;18.70;67.80;;;;;;7900355;28;20184;-49
2022/03/28 00:20:05;;;;;;;4.82;3.70;;;18.60;67.80;;;;;;7900006;28;20187;-54
2022/03/28 00:23:51;;;;;;;4.35;2.95;;;18.60;67.80;;;;;;7900045;28;20204;-51
2022/03/28 00:27:37;;;;;;;5.07;3.15;;;18.60;67.80;;;;;;7900004;28;20594;-53
2022/03/28 00:31:22;;;;;;;5.30;3.30;;;18.60;67.80;;;;;;7899563;28;20177;-51
2022/03/28 00:35:08;;;;;;;4.82;3.08;;;18.60;67.80;;;;;;7899573;28;20238;-49
2022/03/28 00:38:53;;;;;;;5.05;3.25;;;18.60;67.90;;;;;;7901681;28;20181;-50
2022/03/28 00:42:39;;;;;;;4.32;3.05;;;18.60;67.90;;;;;;7904962;28;20172;-51
2022/03/28 00:46:25;;;;;;;5.57;3.58;;;18.50;67.90;;;;;;7905180;28;20266;-52
2022/03/28 00:50:11;;;;;;;4.22;3.10;;;18.50;67.90;;;;;;7904761;28;20259;-49
2022/03/28 00:53:57;;;;;;;3.75;3.20;;;18.50;67.90;;;;;;7905072;28;20273;-49
2022/03/28 00:57:44;;;;;;;4.38;2.92;;;18.50;67.90;;;;;;7904735;28;20554;-52
2022/03/28 01:01:29;;;;;;;4.63;3.33;;;18.50;68.00;;;;;;7904559;28;20192;-49
2022/03/28 01:05:15;;;;;;;5.00;3.30;;;18.50;67.90;;;;;;7904620;28;20289;-50
2022/03/28 01:09:01;;;;;;;4.30;3.47;;;18.50;67.90;;;;;;7904741;28;20169;-49
2022/03/28 01:12:47;;;;;;;4.13;3.20;;;18.40;67.90;;;;;;7904153;28;20196;-50
2022/03/28 01:18:05;;;;;;;3.38;2.90;;;18.40;67.90;;;;;;7904351;28;20572;-50
2022/03/28 01:20:40;;;;;;;4.35;3.00;;;18.40;67.90;;;;;;7903797;28;20181;-52
2022/03/28 01:24:25;;;;;;;4.63;3.05;;;18.40;67.90;;;;;;7904088;28;20208;-52
2022/03/28 01:28:11;;;;;;;4.13;3.20;;;18.40;67.90;;;;;;7904200;28;20180;-52
2022/03/28 01:31:56;;;;;;;3.58;2.95;;;18.40;67.90;;;;;;7903541;28;20168;-49
2022/03/28 01:35:43;;;;;;;4.35;3.30;;;18.40;68.00;;;;;;7903543;28;20200;-52
2022/03/28 01:39:31;;;;;;;3.85;2.80;;;18.30;67.90;;;;;;7903486;28;20184;-49
2022/03/28 01:43:17;;;;;;;3.97;2.83;;;18.30;67.80;;;;;;7903445;28;20601;-51
2022/03/28 01:47:03;;;;;;;4.30;2.83;;;18.30;67.80;;;;;;7903254;28;20272;-50
2022/03/28 01:50:48;;;;;;;3.83;2.83;;;18.30;67.90;;;;;;7901900;28;20210;-51
2022/03/28 01:54:34;;;;;;;3.60;2.80;;;18.30;67.90;;;;;;7903188;28;20204;-49
2022/03/28 01:58:19;;;;;;;4.32;2.90;;;18.30;68.00;;;;;;7903275;28;20185;-49
2022/03/28 02:02:05;;;;;;;4.13;2.75;;;18.30;67.90;;;;;;7902935;28;20185;-52
2022/03/28 02:05:50;;;;;;;3.03;2.55;;;18.30;68.00;;;;;;7903011;28;20251;-54
2022/03/28 02:09:36;;;;;;;3.70;2.95;;;18.30;67.90;;;;;;7903002;28;20330;-49
2022/03/28 02:13:21;;;;;;;3.65;2.50;;;18.30;67.90;;;;;;7903146;28;20264;-50
2022/03/28 02:17:07;;;;;;;3.00;2.70;;;18.30;67.90;;;;;;7903010;28;20225;-53
2022/03/28 02:20:52;;;;;;;2.92;2.63;;;18.30;68.00;;;;;;7902579;28;20185;-49
2022/03/28 02:24:39;;;;;;;3.33;2.95;;;18.20;67.80;;;;;;7902423;28;20245;-52
2022/03/28 02:28:25;;;;;;;4.70;3.25;;;18.20;67.80;;;;;;7902420;28;20183;-49
2022/03/28 02:32:12;;;;;;;5.18;2.80;;;18.20;67.80;;;;;;7901849;28;20215;-49
2022/03/28 02:35:58;;;;;;;3.13;2.60;;;18.20;67.80;;;;;;7901872;28;20204;-49
2022/03/28 02:39:43;;;;;;;3.08;2.53;;;18.20;67.80;;;;;;7901685;28;20176;-52
2022/03/28 02:43:29;;;;;;;4.32;2.80;;;18.20;67.80;;;;;;7901722;28;20335;-50
2022/03/28 02:47:14;;;;;;;4.07;2.60;;;18.20;67.80;;;;;;7901639;28;20173;-52
2022/03/28 02:51:00;;;;;;;2.65;2.45;;;18.20;67.80;;;;;;7901199;28;20185;-50
2022/03/28 02:54:45;;;;;;;3.25;2.63;;;18.20;67.90;;;;;;7901329;28;20196;-49
2022/03/28 02:58:31;;;;;;;3.22;2.58;;;18.20;67.80;;;;;;7901356;28;20175;-52
2022/03/28 03:02:17;;;;;;;4.28;3.03;;;18.20;68.70;;;;;;7900668;28;20272;-49
2022/03/28 03:06:02;;;;;;;3.45;2.80;;;18.20;67.80;;;;;;7901027;28;20740;-51
2022/03/28 03:09:48;;;;;;;3.35;2.65;;;18.10;67.80;;;;;;7900820;28;20195;-52
2022/03/28 03:13:33;;;;;;;3.75;2.50;;;18.10;67.80;;;;;;7900892;28;20204;-52
2022/03/28 03:17:20;;;;;;;3.08;2.53;;;18.10;67.80;;;;;;7900908;28;20169;-49
2022/03/28 03:21:06;;;;;;;2.80;2.47;;;18.10;67.80;;;;;;7900562;28;20204;-51
2022/03/28 03:24:51;;;;;;;3.70;2.50;;;18.10;67.80;;;;;;7900640;28;20212;-49
2022/03/28 03:28:37;;;;;;;2.85;2.45;;;18.10;67.80;;;;;;7900596;28;20176;-51
2022/03/28 03:32:22;;;;;;;8.05;2.50;;;18.20;67.90;;;;;;7900280;28;20651;-52
2022/03/28 03:36:08;;;;;;;4.80;2.33;;;18.20;67.90;;;;;;7900473;28;20192;-49
2022/03/28 03:39:53;;;;;;;3.75;2.85;;;18.20;67.80;;;;;;7900386;28;20188;-51
2022/03/28 03:43:39;;;;;;;3.40;2.55;;;18.20;67.80;;;;;;7900367;28;20295;-52
2022/03/28 03:47:24;;;;;;;3.95;2.65;;;18.30;67.80;;;;;;7900464;28;20341;-49
2022/03/28 03:51:10;;;;;;;3.53;2.47;;;18.30;67.70;;;;;;7900115;28;20238;-50
2022/03/28 03:54:55;;;;;;;4.03;2.83;;;18.40;67.70;;;;;;7900346;28;20215;-54
2022/03/28 03:58:41;;;;;;;3.10;2.38;;;18.40;67.50;;;;;;7900410;28;20214;-49
2022/03/28 04:02:26;;;;;;;4.07;2.60;;;18.40;67.50;;;;;;7900542;28;20204;-51
2022/03/28 04:06:12;;;;;;;3.30;2.30;;;18.40;67.40;;;;;;7900863;28;20222;-52
2022/03/28 04:10:04;;;;;;;4.90;2.38;;;18.50;67.40;;;;;;7900102;28;20180;-49
2022/03/28 04:13:49;;;;;;;2.63;2.30;;;18.60;67.20;;;;;;7902169;28;20667;-50
2022/03/28 04:17:44;;;;;;;3.85;2.15;;;18.60;67.20;;;;;;7906132;28;20651;-49
2022/03/28 04:21:30;;;;;;;2.35;2.05;;;18.60;67.10;;;;;;7905884;28;20244;-49
2022/03/28 04:25:15;;;;;;;3.97;2.10;;;18.70;67.00;;;;;;7920251;28;20215;-51
2022/03/28 04:29:01;;;;;;;7.63;2.65;;;18.70;66.80;;;;;;7936181;28;20183;-51
2022/03/28 04:32:46;;;;;;;4.18;2.58;;;18.80;66.60;;;;;;7936108;28;20183;-50
2022/03/28 04:36:32;;;;;;;2.88;2.40;;;18.80;66.50;;;;;;7936025;28;20685;-54
2022/03/28 04:40:17;;;;;;;13.15;3.20;;;18.80;66.50;;;;;;7931703;27;20192;-50
2022/03/28 04:44:03;;;;;;;7.63;2.85;;;18.90;66.60;;;;;;7935221;28;20200;-50
2022/03/28 04:47:48;;;;;;;8.60;2.85;;;18.90;66.60;;;;;;7935649;28;20255;-51
2022/03/28 04:51:34;;;;;;;6.72;2.95;;;18.90;66.50;;;;;;7935424;27;20646;-50
2022/03/28 04:55:20;;;;;;;3.40;2.70;;;18.90;66.50;;;;;;7935507;28;20673;-52
2022/03/28 04:59:06;;;;;;;8.70;2.50;;;19.00;66.50;;;;;;7936097;28;20272;-49
2022/03/28 05:02:52;;;;;;;7.45;2.75;;;19.00;66.50;;;;;;7935882;28;20204;-51
2022/03/28 05:06:37;;;;;;;7.43;3.45;;;19.10;66.40;;;;;;7934974;28;20215;-50
2022/03/28 05:10:23;;;;;;;7.15;2.65;;;19.10;66.20;;;;;;7935166;28;20187;-50
2022/03/28 05:14:08;;;;;;;5.18;2.65;;;19.10;66.40;;;;;;7934993;28;20233;-50
2022/03/28 05:17:54;;;;;;;11.45;3.28;;;19.10;66.40;;;;;;7934935;28;20279;-50
2022/03/28 05:21:39;;;;;;;4.90;2.80;;;19.20;66.40;;;;;;7935036;28;20182;-50
2022/03/28 05:25:25;;;;;;;5.53;2.85;;;19.20;66.30;;;;;;7917689;28;20421;-49
2022/03/28 05:29:11;;;;;;;5.10;2.83;;;19.20;66.30;;;;;;7902766;28;20185;-50
2022/03/28 05:32:56;;;;;;;5.85;2.88;;;19.30;66.40;;;;;;7903388;28;20249;-50
2022/03/28 05:36:43;;;;;;;5.22;2.70;;;19.30;66.40;;;;;;7902846;28;20173;-51
2022/03/28 05:40:29;;;;;;;6.30;3.05;;;19.30;66.40;;;;;;7920260;28;20251;-50
2022/03/28 05:44:14;;;;;;;8.88;2.90;;;19.30;66.30;;;;;;7934204;28;20673;-52
2022/03/28 05:48:00;;;;;;;4.63;2.80;;;19.40;66.40;;;;;;7913428;28;20181;-49
2022/03/28 05:51:46;;;;;;;9.23;3.00;;;19.40;66.40;;;;;;7902129;28;20196;-50
2022/03/28 05:55:32;;;;;;;10.90;3.22;;;19.50;66.50;;;;;;7920011;28;20282;-50
2022/03/28 05:59:18;;;;;;;7.00;2.67;;;19.50;66.30;;;;;;7933740;28;20176;-51
2022/03/28 06:03:08;;;;;;;11.15;3.03;;;19.50;66.20;;;;;;7933997;28;20195;-50
2022/03/28 06:06:53;;;;;;;9.70;3.30;;;19.50;66.20;;;;;;7914101;28;20362;-49
2022/03/28 06:10:39;;;;;;;10.93;3.13;;;19.50;66.20;;;;;;7901715;28;20175;-50
2022/03/28 06:14:24;;;;;;;6.18;3.33;;;19.60;66.20;;;;;;7901582;28;20207;-51
2022/03/28 06:18:10;;;;;;;8.85;3.40;;;19.60;66.10;;;;;;7901747;28;20176;-49
2022/03/28 06:21:55;;;;;;;8.95;3.58;;;19.60;66.00;;;;;;7901208;28;20241;-50
2022/03/28 06:25:41;;;;;;;8.20;3.33;;;19.60;66.00;;;;;;7921092;28;20807;-52
2022/03/28 06:29:26;;;;;;;7.80;3.80;;;19.60;66.10;;;;;;7901228;28;20184;-53
2022/03/28 06:33:12;;;;;;;10.60;3.75;;;19.60;65.90;;;;;;7901368;28;20216;-49
2022/03/28 06:36:58;;;;;;;11.80;4.07;;;19.70;65.90;;;;;;7900684;28;20661;-50
2022/03/28 06:40:43;;;;;;;10.20;3.70;;;19.70;65.90;;;;;;7900872;28;20680;-49
2022/03/28 06:44:29;;;;;;;12.05;4.22;;;19.70;65.80;;;;;;7898200;28;20275;-50
2022/03/28 06:48:15;;;;;;;6.32;4.18;;;19.70;66.00;;;;;;7903483;28;20168;-50
2022/03/28 06:52:00;;;;;;;6.80;4.15;;;19.70;66.10;;;;;;7900435;28;20203;-49
2022/03/28 06:55:45;;;;;;;13.85;5.00;;;19.70;67.00;;;;;;7900234;28;20239;-50
2022/03/28 06:59:31;;;;;;;8.75;4.10;;;19.80;66.10;;;;;;7900204;28;20177;-49
2022/03/28 07:03:17;;;;;;;13.02;4.85;;;19.80;66.10;;;;;;7900348;28;20197;-50
2022/03/28 07:07:03;;;;;;;14.55;3.70;;;19.80;66.40;;;;;;7900232;28;20613;-52
2022/03/28 07:10:49;;;;;;;10.88;3.70;;;19.90;66.60;;;;;;7918560;28;20189;-49
2022/03/28 07:14:35;;;;;;;11.63;4.50;;;19.90;66.30;;;;;;7920966;28;20265;-52
2022/03/28 07:18:21;;;;;;;8.73;4.75;;;20.00;66.30;;;;;;7901612;28;20610;-52
2022/03/28 07:22:07;;;;;;;13.88;4.55;;;20.00;66.30;;;;;;7918393;28;20263;-51
2022/03/28 07:25:52;;;;;;;8.63;3.80;;;20.00;66.40;;;;;;7903142;28;20220;-49
2022/03/28 07:29:38;;;;;;;9.73;3.90;;;20.00;66.50;;;;;;7899533;28;20192;-49
2022/03/28 07:33:24;;;;;;;10.25;3.88;;;20.10;66.50;;;;;;7919739;28;20196;-50
2022/03/28 07:37:10;;;;;;;28.65;5.10;;;20.00;66.60;;;;;;7899301;28;20179;-50
2022/03/28 07:40:55;;;;;;;15.43;4.47;;;20.00;67.10;;;;;;7907414;28;20183;-50
2022/03/28 07:44:42;;;;;;;16.92;4.07;;;20.10;66.80;;;;;;7904700;28;20239;-49
2022/03/28 07:48:28;;;;;;;22.10;5.05;;;20.10;66.80;;;;;;7900747;28;20740;-49
2022/03/28 07:52:14;;;;;;;16.05;4.45;;;20.10;66.80;;;;;;7913573;28;20197;-53
2022/03/28 07:56:00;;;;;;;12.05;3.90;;;20.10;66.80;;;;;;7905130;28;20208;-50
2022/03/28 07:59:47;;;;;;;13.50;3.67;;;20.20;66.80;;;;;;7905073;28;20195;-50
2022/03/28 08:03:32;;;;;;;11.95;4.40;;;20.10;66.80;;;;;;7905583;28;20283;-51
2022/03/28 08:07:18;;;;;;;10.75;4.18;;;20.20;67.00;;;;;;7905269;28;20666;-52
2022/03/28 08:11:08;;;;;;;18.00;4.20;;;20.20;67.00;;;;;;7905034;28;20219;-50
2022/03/28 08:14:53;;;;;;;12.00;3.65;;;20.20;68.20;;;;;;7907166;28;20212;-51
2022/03/28 08:18:41;;;;;;;10.25;4.25;;;20.20;67.10;;;;;;7905495;28;20172;-49
2022/03/28 08:22:26;;;;;;;11.82;3.67;;;20.20;66.80;;;;;;7904983;28;20535;-52
2022/03/28 08:26:12;;;;;;;8.80;4.40;;;20.20;66.90;;;;;;7909372;28;20323;-52
2022/03/28 08:29:57;;;;;;;8.15;3.75;;;20.20;66.90;;;;;;7906909;28;20276;-49
2022/03/28 08:33:43;;;;;;;7.72;3.83;;;20.20;66.90;;;;;;7903105;28;20197;-51
2022/03/28 08:37:28;;;;;;;6.60;3.80;;;20.30;67.00;;;;;;7905117;28;20193;-54
2022/03/28 08:41:16;;;;;;;8.85;4.45;;;20.30;67.00;;;;;;7905340;28;20565;-52
2022/03/28 08:45:03;;;;;;;12.10;4.22;;;20.30;67.10;;;;;;7904123;28;20226;-50
2022/03/28 08:48:52;;;;;;;14.27;4.10;;;20.30;68.10;;;;;;7904968;28;20200;-50
2022/03/28 08:52:40;;;;;;;9.15;3.70;;;20.30;67.30;;;;;;7921644;28;20183;-49
2022/03/28 08:56:26;;;;;;;11.50;4.45;;;20.30;67.50;;;;;;7935688;28;20176;-55
2022/03/28 09:00:12;;;;;;;17.20;5.40;;;20.30;67.20;;;;;;7903929;28;20177;-52
2022/03/28 09:04:07;;;;;;;13.68;5.07;;;20.40;67.20;;;;;;7909886;28;20200;-51
2022/03/28 09:07:52;;;;;;;11.63;4.57;;;20.40;67.20;;;;;;7905003;27;20218;-52
2022/03/28 09:11:42;;;;;;;11.50;4.75;;;20.40;67.40;;;;;;7903682;28;20177;-53
2022/03/28 09:15:50;;;;;;;10.57;3.85;;;20.40;67.40;;;;;;7903203;28;20199;-53
2022/03/28 09:19:48;;;;;;;12.48;4.13;;;20.40;67.80;;;;;;7903860;28;20188;-50
2022/03/28 09:23:44;;;;;;;14.18;4.28;;;20.40;68.50;;;;;;7903264;28;20247;-53
2022/03/28 09:27:33;;;;;;;8.43;4.70;;;20.40;67.60;;;;;;7912830;28;20187;-53
2022/03/28 09:31:44;;;;;;;16.35;4.15;;;20.40;67.80;;;;;;7903589;28;20180;-52
2022/03/28 09:35:30;;;;;;;9.18;4.05;;;20.40;68.00;;;;;;7902437;28;20204;-52
2022/03/28 09:39:26;;;;;;;14.10;4.50;;;20.40;67.80;;;;;;7902414;28;20249;-52
2022/03/28 09:43:20;;;;;;;9.35;4.25;;;20.50;67.70;;;;;;7918636;28;20212;-51
2022/03/28 09:47:11;;;;;;;8.43;3.80;;;20.40;67.70;;;;;;7934014;28;20228;-51
2022/03/28 09:51:03;;;;;;;11.18;4.28;;;20.40;67.80;;;;;;7933866;28;20191;-53
2022/03/28 09:54:57;;;;;;;9.27;3.88;;;20.40;67.50;;;;;;7933854;28;20204;-53
2022/03/28 09:58:48;;;;;;;9.98;3.90;;;20.40;67.70;;;;;;7914172;28;20234;-52
2022/03/28 10:02:35;;;;;;;9.68;4.25;;;20.40;67.70;;;;;;7903656;28;20245;-54
2022/03/28 10:06:22;;;;;;;17.38;4.22;;;20.40;68.00;;;;;;7901484;28;20288;-54
2022/03/28 10:10:07;;;;;;;12.90;4.93;;;20.40;68.40;;;;;;7901625;28;20173;-53
2022/03/28 10:13:54;;;;;;;7.97;3.92;;;20.40;67.70;;;;;;7901643;28;20196;-53
2022/03/28 10:17:41;;;;;;;5.72;3.80;;;20.40;67.80;;;;;;7901578;28;20571;-53
2022/03/28 10:21:37;;;;;;;6.82;4.25;;;20.40;67.80;;;;;;7901861;28;20176;-53
2022/03/28 10:25:25;;;;;;;9.02;3.67;;;20.40;67.50;;;;;;7901193;28;20204;-53
2022/03/28 10:29:17;;;;;;;10.07;3.85;;;20.40;67.80;;;;;;7926036;28;20590;-52
2022/03/28 10:33:21;;;;;;;13.90;5.15;;;20.40;67.70;;;;;;7932829;28;20213;-55
2022/03/28 10:37:44;;;;;;;17.17;5.60;;;20.40;67.20;;;;;;7930424;28;20180;-54
2022/03/28 10:41:29;;;;;;;24.35;5.35;;;20.40;67.90;;;;;;7924898;28;20179;-55
2022/03/28 10:45:21;;;;;;;22.20;5.78;;;20.40;67.80;;;;;;7907846;28;20215;-55
2022/03/28 10:49:08;;;;;;;16.17;5.53;;;20.40;68.00;;;;;;7900427;28;20199;-53
2022/03/28 10:53:13;;;;;;;26.77;6.70;;;20.40;67.50;;;;;;7899916;28;20192;-52
2022/03/28 10:56:59;;;;;;;15.30;6.07;;;20.30;67.60;;;;;;7900164;28;20263;-53
2022/03/28 11:01:13;;;;;;;14.30;5.85;;;20.40;67.80;;;;;;7900338;28;20177;-54
2022/03/28 11:05:12;;;;;;;16.02;5.85;;;20.30;67.50;;;;;;7899771;28;20696;-53
2022/03/28 11:08:59;;;;;;;13.85;6.10;;;20.30;67.50;;;;;;7900153;28;20179;-53
2022/03/28 11:12:51;;;;;;;13.75;5.97;;;20.30;67.80;;;;;;7913848;28;20199;-52
2022/03/28 11:16:52;;;;;;;10.10;6.70;;;20.30;67.50;;;;;;7930747;28;20176;-52
2022/03/28 11:20:46;;;;;;;10.20;5.68;;;20.30;67.50;;;;;;7921224;28;20805;-52
2022/03/28 11:24:56;;;;;;;9.23;5.25;;;20.30;67.30;;;;;;7899501;28;20239;-52
2022/03/28 11:28:42;;;;;;;18.70;5.88;;;20.30;66.80;;;;;;7900486;28;20192;-52
2022/03/28 11:32:33;;;;;;;15.63;5.97;;;20.20;67.30;;;;;;7899828;28;20185;-52
2022/03/28 11:36:21;;;;;;;14.20;6.35;;;20.30;67.50;;;;;;7899610;28;20268;-53
2022/03/28 11:40:08;;;;;;;9.25;6.05;;;20.30;67.70;;;;;;7899594;28;20176;-52
2022/03/28 11:43:55;;;;;;;7.80;5.78;;;20.30;67.50;;;;;;7923568;28;20700;-51
2022/03/28 11:47:50;;;;;;;9.57;6.20;;;20.30;67.70;;;;;;7907433;28;20185;-52
2022/03/28 11:51:38;;;;;;;10.10;5.10;;;20.30;67.90;;;;;;7899322;28;20183;-53
2022/03/28 11:55:25;;;;;;;12.68;5.82;;;20.30;67.80;;;;;;7929753;28;20286;-54
2022/03/28 11:59:11;;;;;;;11.13;5.82;;;20.30;68.10;;;;;;7903950;28;20181;-53
2022/03/28 12:02:58;;;;;;;11.68;6.10;;;20.30;68.10;;;;;;7899398;28;20211;-51
2022/03/28 12:06:45;;;;;;;14.43;6.22;;;20.30;67.00;;;;;;7898829;28;20716;-52
2022/03/28 12:10:34;;;;;;;20.20;6.90;;;20.30;67.20;;;;;;7898852;28;20195;-54
2022/03/28 12:14:21;;;;;;;11.90;5.57;;;20.30;67.50;;;;;;7899209;28;20215;-54
2022/03/28 12:18:08;;;;;;;10.93;5.53;;;20.30;68.00;;;;;;7899091;28;20185;-52
2022/03/28 12:21:56;;;;;;;17.40;5.93;;;20.40;67.80;;;;;;7898861;28;20187;-54
2022/03/28 12:25:44;;;;;;;19.00;6.60;;;20.40;67.80;;;;;;7898403;28;20357;-51
2022/03/28 12:29:32;;;;;;;21.25;5.63;;;20.30;68.10;;;;;;7928638;28;20180;-55
2022/03/28 12:33:20;;;;;;;12.00;5.57;;;20.40;68.00;;;;;;7930450;28;20202;-52
2022/03/28 12:37:06;;;;;;;11.00;5.68;;;20.30;67.50;;;;;;7931108;28;20215;-52
2022/03/28 12:40:54;;;;;;;13.10;5.30;;;20.30;67.60;;;;;;7935892;28;20184;-55
2022/03/28 12:44:39;;;;;;;8.10;5.45;;;20.30;67.50;;;;;;7904006;28;20204;-54
2022/03/28 12:48:44;;;;;;;6.35;5.40;;;20.30;67.30;;;;;;7904208;28;20169;-55
2022/03/28 12:52:31;;;;;;;8.23;4.68;;;20.40;67.20;;;;;;7906259;28;20192;-52
2022/03/28 12:56:19;;;;;;;12.18;5.28;;;20.30;67.20;;;;;;7907547;28;20198;-51
2022/03/28 13:00:07;;;;;;;9.65;4.97;;;20.30;67.40;;;;;;7935456;28;20178;-53
2022/03/28 13:04:17;;;;;;;16.17;5.50;;;20.30;67.20;;;;;;7935418;28;20682;-53
2022/03/28 13:08:11;;;;;;;9.20;5.00;;;20.40;67.20;;;;;;7935448;28;20191;-52
2022/03/28 13:12:07;;;;;;;8.25;5.53;;;20.40;67.10;;;;;;7933060;28;20271;-52
2022/03/28 13:15:52;;;;;;;14.73;5.25;;;20.40;67.20;;;;;;7935845;28;20204;-52
2022/03/28 13:19:40;;;;;;;11.45;5.40;;;20.40;67.20;;;;;;7935566;28;20232;-52
2022/03/28 13:23:28;;;;;;;7.95;5.47;;;20.40;67.10;;;;;;7935815;28;20207;-50
2022/03/28 13:28:01;;;;;;;11.65;5.28;;;20.40;67.20;;;;;;7935467;28;20681;-53
2022/03/28 13:31:22;;;;;;;8.20;5.63;;;20.40;67.00;;;;;;7935173;28;20570;-50
2022/03/28 13:35:07;;;;;;;6.57;5.53;;;20.40;67.20;;;;;;7935442;28;20192;-53
2022/03/28 13:38:53;;;;;;;8.43;5.78;;;20.40;67.20;;;;;;7935075;28;20259;-51
2022/03/28 13:42:38;;;;;;;16.15;6.00;;;20.40;67.30;;;;;;7934874;28;20251;-54
2022/03/28 13:46:24;;;;;;;8.60;5.50;;;20.40;67.50;;;;;;7934928;28;20203;-51
2022/03/28 13:50:09;;;;;;;7.63;6.22;;;20.40;67.30;;;;;;7931877;28;20188;-52
2022/03/28 13:53:56;;;;;;;7.50;5.35;;;20.40;67.50;;;;;;7903207;28;20222;-53
2022/03/28 13:57:42;;;;;;;10.32;5.43;;;20.40;67.20;;;;;;7903088;28;20682;-52
2022/03/28 14:01:28;;;;;;;13.23;5.40;;;20.50;66.90;;;;;;7902999;28;20176;-53
2022/03/28 14:05:14;;;;;;;10.43;5.30;;;20.50;67.10;;;;;;7904978;28;20219;-54
2022/03/28 14:08:59;;;;;;;8.23;5.10;;;20.40;67.10;;;;;;7927777;28;20263;-53
2022/03/28 14:12:45;;;;;;;6.50;5.10;;;20.50;67.40;;;;;;7901793;28;20184;-54
2022/03/28 14:16:31;;;;;;;10.32;4.93;;;20.50;67.10;;;;;;7902447;28;20181;-50
2022/03/28 14:20:18;;;;;;;8.77;5.10;;;20.50;67.00;;;;;;7902233;28;20288;-52
2022/03/28 14:24:04;;;;;;;8.00;4.80;;;20.40;66.70;;;;;;7902556;28;20249;-50
2022/03/28 14:27:49;;;;;;;8.88;4.85;;;20.40;66.80;;;;;;7902294;28;20181;-50
2022/03/28 14:31:35;;;;;;;9.27;5.00;;;20.40;67.00;;;;;;7902580;28;20172;-52
2022/03/28 14:35:21;;;;;;;9.02;5.15;;;20.40;67.10;;;;;;7902279;28;20204;-52
2022/03/28 14:39:07;;;;;;;8.15;4.40;;;20.40;67.50;;;;;;7899088;28;20203;-52
2022/03/28 14:42:52;;;;;;;8.30;3.75;;;20.40;68.00;;;;;;7901669;28;20658;-52
2022/03/28 14:50:42;;;;;;;7.80;3.55;;;20.40;67.80;;;;;;7901163;28;20580;-53
2022/03/28 14:54:28;;;;;;;5.20;3.25;;;20.40;68.10;;;;;;7901514;28;20714;-54
2022/03/28 14:58:13;;;;;;;5.20;3.60;;;20.40;67.70;;;;;;7901128;28;20717;-53
2022/03/28 15:02:00;;;;;;;9.85;3.50;;;20.50;67.70;;;;;;7901127;28;20187;-51
2022/03/28 15:05:46;;;;;;;9.88;3.63;;;20.40;67.80;;;;;;7901630;28;20240;-53
2022/03/28 15:09:32;;;;;;;6.43;3.00;;;20.50;68.00;;;;;;7898857;28;20165;-54
2022/03/28 15:13:17;;;;;;;10.23;3.28;;;20.40;67.80;;;;;;7897955;28;20200;-53
2022/03/28 15:17:04;;;;;;;7.93;3.40;;;20.40;67.90;;;;;;7898188;28;20187;-52
2022/03/28 15:20:50;;;;;;;8.80;3.38;;;20.40;67.90;;;;;;7897753;28;20177;-51
2022/03/28 15:24:38;;;;;;;6.63;3.20;;;20.40;68.10;;;;;;7900080;28;20211;-54
2022/03/28 15:28:24;;;;;;;6.82;3.13;;;20.40;68.10;;;;;;7901286;28;20548;-55
2022/03/28 15:32:10;;;;;;;4.00;3.20;;;20.40;67.80;;;;;;7900773;28;20203;-52
2022/03/28 15:35:55;;;;;;;15.93;3.28;;;20.40;68.00;;;;;;7900603;28;20188;-53
2022/03/28 15:39:41;;;;;;;6.45;3.15;;;20.40;67.50;;;;;;7900188;28;20172;-52
2022/03/28 15:43:27;;;;;;;10.07;3.25;;;20.40;67.50;;;;;;7900492;28;20255;-56
2022/03/28 15:47:13;;;;;;;6.90;3.17;;;20.40;67.50;;;;;;7909537;28;20294;-51
2022/03/28 15:50:59;;;;;;;10.52;3.05;;;20.40;67.40;;;;;;7931769;28;20190;-53
2022/03/28 15:54:45;;;;;;;4.10;2.85;;;20.40;67.40;;;;;;7932910;28;20207;-53
2022/03/28 15:58:31;;;;;;;5.13;3.08;;;20.30;67.40;;;;;;7931892;28;20186;-53
2022/03/28 16:02:17;;;;;;;4.88;3.13;;;20.30;67.10;;;;;;7931683;28;20184;-54
2022/03/28 16:06:02;;;;;;;5.10;3.50;;;20.40;68.10;;;;;;7931893;28;20211;-52
2022/03/28 16:09:49;;;;;;;4.75;2.90;;;20.30;67.20;;;;;;7933499;28;20798;-53
2022/03/28 16:13:34;;;;;;;5.18;3.00;;;20.30;67.40;;;;;;7938478;28;20195;-53
2022/03/28 16:17:20;;;;;;;7.93;2.97;;;20.30;67.30;;;;;;7937918;28;20248;-54
2022/03/28 16:21:06;;;;;;;3.33;2.70;;;20.30;67.20;;;;;;7937583;28;20553;-54
2022/03/28 16:24:51;;;;;;;6.32;2.88;;;20.40;67.30;;;;;;7937501;28;20269;-56
2022/03/28 16:28:37;;;;;;;3.60;2.53;;;20.30;67.10;;;;;;7937514;28;20717;-54
2022/03/28 16:32:23;;;;;;;3.63;2.60;;;20.30;67.50;;;;;;7936523;28;20259;-54
2022/03/28 16:36:09;;;;;;;5.05;2.85;;;20.30;67.40;;;;;;7937068;28;20544;-54
2022/03/28 16:39:56;;;;;;;6.28;2.95;;;20.40;67.40;;;;;;7937099;28;20176;-56
2022/03/28 16:43:42;;;;;;;4.00;2.88;;;20.30;67.20;;;;;;7937273;28;20192;-56
2022/03/28 16:47:28;;;;;;;3.45;2.58;;;20.30;67.50;;;;;;7937477;28;20295;-53
2022/03/28 16:51:14;;;;;;;3.95;2.75;;;20.30;67.40;;;;;;7936837;28;20188;-56
2022/03/28 16:55:02;;;;;;;3.20;2.60;;;20.30;67.40;;;;;;7936783;28;20228;-54
2022/03/28 16:58:47;;;;;;;11.15;3.78;;;20.30;67.50;;;;;;7936906;28;20572;-56
2022/03/28 17:02:34;;;;;;;9.23;2.78;;;20.30;67.00;;;;;;7936544;28;20323;-53
2022/03/28 17:06:19;;;;;;;4.95;3.03;;;20.30;67.40;;;;;;7936551;28;20206;-53
2022/03/28 17:14:45;;;;;;;11.02;3.05;;;20.30;67.50;;;;;;7900463;28;20265;-52
2022/03/28 17:18:30;;;;;;;7.30;2.90;;;20.30;67.40;;;;;;7900457;28;20228;-50
2022/03/28 17:22:17;;;;;;;13.27;3.03;;;20.30;67.50;;;;;;7899760;28;20603;-52
2022/03/28 17:26:03;;;;;;;13.23;3.70;;;20.30;67.40;;;;;;7900131;28;20239;-52
2022/03/28 17:29:48;;;;;;;20.08;2.80;;;20.30;67.30;;;;;;7899803;28;20189;-51
2022/03/28 17:33:37;;;;;;;5.25;3.17;;;20.30;67.40;;;;;;7900113;28;20200;-51
2022/03/28 17:37:23;;;;;;;13.52;2.72;;;20.30;67.50;;;;;;7896957;28;20196;-51
2022/03/28 17:41:08;;;;;;;9.63;3.13;;;20.30;67.40;;;;;;7875417;28;20192;-53
2022/03/28 17:44:57;;;;;;;20.63;4.25;;;20.30;67.50;;;;;;7899488;28;20661;-53
2022/03/28 17:48:42;;;;;;;21.27;3.65;;;20.30;67.20;;;;;;7897019;28;20195;-53
2022/03/28 17:52:29;;;;;;;18.27;3.70;;;20.30;67.20;;;;;;7903020;28;20188;-51
2022/03/28 17:56:14;;;;;;;9.80;4.00;;;20.30;67.10;;;;;;7903266;28;20188;-54
2022/03/28 18:00:00;;;;;;;10.43;3.70;;;20.30;67.10;;;;;;7902766;28;20183;-55
2022/03/28 18:03:46;;;;;;;12.00;3.78;;;20.30;67.00;;;;;;7903322;28;20203;-55
2022/03/28 18:07:32;;;;;;;8.98;3.83;;;20.20;67.00;;;;;;7903826;28;20295;-53
2022/03/28 18:11:17;;;;;;;14.40;4.03;;;20.20;66.90;;;;;;7903059;28;20234;-53
2022/03/28 18:15:05;;;;;;;13.30;3.58;;;20.30;66.90;;;;;;7904757;28;20215;-51
2022/03/28 18:18:51;;;;;;;22.25;4.25;;;20.20;67.00;;;;;;7914240;28;20267;-54
2022/03/28 18:22:38;;;;;;;534.08;30.98;;;20.30;66.70;;;;;;7902786;28;20184;-52
2022/03/28 18:26:24;;;;;;;204.60;13.65;;;20.20;67.20;;;;;;7902717;28;20256;-53
2022/03/28 18:30:11;;;;;;;158.70;15.00;;;20.30;67.40;;;;;;7919877;28;20189;-52
2022/03/28 18:33:57;;;;;;;127.57;9.88;;;20.30;67.20;;;;;;7933126;28;20223;-54
2022/03/28 18:37:44;;;;;;;89.43;10.07;;;20.30;67.20;;;;;;7933884;27;20176;-53
2022/03/28 18:41:30;;;;;;;126.70;10.38;;;20.30;67.00;;;;;;7933670;28;20184;-53
2022/03/28 18:45:16;;;;;;;98.65;8.45;;;20.30;67.50;;;;;;7933413;28;20242;-55
2022/03/28 18:49:02;;;;;;;85.68;6.97;;;20.30;67.80;;;;;;7933211;28;20210;-50
2022/03/28 18:52:47;;;;;;;60.20;7.85;;;20.30;68.30;;;;;;7932909;28;20180;-55
2022/03/28 18:56:33;;;;;;;67.13;7.75;;;20.30;68.10;;;;;;7933021;28;20864;-53
2022/03/28 19:00:19;;;;;;;46.70;7.32;;;20.30;67.90;;;;;;7932659;28;20173;-53
2022/03/28 19:04:05;;;;;;;51.15;6.97;;;20.30;68.00;;;;;;7929493;28;20215;-53
2022/03/28 19:07:52;;;;;;;52.20;6.88;;;20.30;68.10;;;;;;7915426;28;20180;-52
2022/03/28 19:11:38;;;;;;;43.25;6.80;;;20.30;67.90;;;;;;7926411;28;20180;-52
2022/03/28 19:15:25;;;;;;;45.17;6.50;;;20.30;67.80;;;;;;7912509;28;20268;-52
2022/03/28 19:19:12;;;;;;;41.95;5.93;;;20.20;67.80;;;;;;7900605;28;20172;-52
2022/03/28 19:23:02;;;;;;;35.90;7.15;;;20.20;67.80;;;;;;7900804;28;20268;-53
2022/03/28 19:26:48;;;;;;;33.55;5.97;;;20.20;67.90;;;;;;7900720;28;20287;-51
2022/03/28 19:30:33;;;;;;;28.90;5.85;;;20.20;67.90;;;;;;7900486;28;20169;-53
2022/03/28 19:34:19;;;;;;;28.52;5.70;;;20.20;68.00;;;;;;7900658;28;20238;-53
2022/03/28 19:38:08;;;;;;;29.58;5.63;;;20.10;67.90;;;;;;7900686;28;20222;-53
2022/03/28 19:41:54;;;;;;;23.45;5.93;;;20.10;67.90;;;;;;7900637;28;20225;-51
2022/03/28 19:45:39;;;;;;;30.42;6.97;;;20.10;67.90;;;;;;7900355;28;20207;-53